AirNav  
 
 1059 users online  

72MU Executive Hills Polo Club Heliport
Kansas City, Missouri, USA

GOING TO KANSAS CITY?


FAA INFORMATION EFFECTIVE 25 MARCH 2021

Location

FAA Identifier: 72MU
Lat/Long: 39-16-50.0050N 094-40-16.8480W
39-16.833417N 094-40.280800W
39.2805569,-94.6713467
(estimated)
Elevation: 1042 ft. / 318 m (estimated)
Variation: 05E (1985)
Time zone: UTC -5 (UTC -6 during Standard Time)
Zip code: 64153

Heliport Operations

Heliport use: Private use. Permission required prior to landing
Activation date: 06/1987
Control tower: no
ARTCC: KANSAS CITY CENTER
FSS: COLUMBIA FLIGHT SERVICE STATION
Attendance: UNATNDD
Segmented circle: no

Heliport Communications

WX ASOS at MCI (2.2 nm NW): PHONE 816-329-2808
WX ASOS at MKC (10 nm S): PHONE 816-329-2843
WX AWOS-3 at GPH (17 nm E): 120.275 (816-407-3399)

Nearby radio navigation aids

VOR radial/distance  VOR name  Freq  Var
MCIr090/3.1KANSAS CITY VORTAC113.2505E
ANXr287/27.6NAPOLEON VORTAC114.0007E

 
NDB name  Hdg/Dist  Freq  Var  ID
AMAZON159/37.823304EAZN .- --.. -.

Heliport Services

Runway Information

Helipad H1

Dimensions: 40 x 40 ft. / 12 x 12 m
Surface: concrete
Traffic pattern: leftleft

Heliport Ownership and Management from official FAA records

Ownership: Privately-owned
Owner: EXECUTIVE HILLS NORTH INC.
10220 N. EXEC. HILLS BLVD.
KANSAS CITY, MO 64153
Phone 816-891-8448

Additional Remarks

FOR CD CTC KANSAS CITY APCH AT 816-329-2710.

Instrument Procedures

There are no published instrument procedures at 72MU.

Some nearby airports with instrument procedures:

KMCI - Kansas City International Airport (2 nm NW)
KMKC - Charles B Wheeler Downtown Airport (10 nm S)
KFLV - Sherman Army Airfield (12 nm NW)
KGPH - Midwest NTL Air Center Airport (17 nm E)
3EX - Excelsior Springs Memorial Airport (22 nm E)
 
Loc | Ops | Rwys | IFR | FBO | Links
Com | Nav | Svcs | Stats | Notes
Area around 72MU (Executive Hills Polo Club Heliport)
 
Road maps at: MapQuest Bing Google
 
Aerial photo
No photo
 
Sectional chart

 
Airport distance calculator
Flying to Executive Hills Polo Club Heliport? Find the distance to fly.

From to 72MU

Sunrise and sunset
Times for 16-Apr-2021
 Local
(UTC-5)
 Zulu
(UTC)
Morning civil twilight06:1311:13
Sunrise06:4111:41
Sunset19:5600:56
Evening civil twilight20:2401:24

Current date and time
Zulu (UTC)  16-Apr-2021 12:39:37
Local (UTC-5)  16-Apr-2021 07:39:37
 
METAR
KMCI 
3nm W 
161153Z 07007KT 10SM BKN090 OVC130 08/03 A3003 RMK AO2 SLP169 T00830028 10100 20083 55006
KMKC 
10nm S 
161154Z 06006KT 10SM CLR 09/02 A3003 RMK AO2 SLP168 T00890022 10106 20089 56005
KGPH 
17nm E 
161155Z AUTO 08003KT 10SM OVC100 07/02 A3005 RMK AO2
TAF
KMCI 
3nm W 
161121Z 1612/1712 05008KT P6SM BKN100 FM161700 05008KT 6SM -SHRA BR OVC050 FM161900 03008KT 3SM -RA SCT015 OVC020 FM170200 36006KT 6SM -SHRA BR OVC010 FM170600 34005KT 6SM BR OVC008
KMKC 
10nm S 
161121Z 1612/1712 04008KT P6SM BKN100 FM161700 04008KT 6SM -SHRA BR OVC050 FM161900 02008KT 3SM -RA SCT015 OVC020 FM170200 01006KT 6SM -SHRA BR OVC010 FM170600 34005KT 6SM BR OVC008
NOTAMs
Click for the latest NOTAMs
NOTAMs are issued by the DoD/FAA and will open in a separate window not controlled by AirNav.

 

 
 

Would you like to see your business listed on this page?

 If your business provides an interesting product or service to pilots, flight crews, aircraft, or users of the Executive Hills Polo Club Heliport, you should consider listing it here.  To start the listing process, click on the button below
 
Add a business
 

Other Pages about Executive Hills Polo Club Heliport

Update a link
 
Copyright © AirNav, LLC. All rights reserved. Privacy Policy  Contact